createdAt,value
2018-07-02T00:00:35.630Z,26.23
2018-07-02T00:03:04.714Z,26.23
2018-07-02T00:06:45.551Z,26.23
2018-07-02T00:09:14.702Z,26.21
2018-07-02T00:11:43.806Z,26.19
2018-07-02T00:14:12.773Z,26.19
2018-07-02T00:16:41.726Z,26.19
2018-07-02T00:19:10.834Z,26.19
2018-07-02T00:21:39.716Z,26.20
2018-07-02T00:24:08.751Z,26.21
2018-07-02T00:26:37.854Z,26.20
2018-07-02T00:29:06.798Z,26.20
2018-07-02T00:31:35.797Z,26.20
2018-07-02T00:34:04.842Z,26.20
2018-07-02T00:36:33.979Z,26.21
2018-07-02T00:39:03.142Z,26.22
2018-07-02T00:41:32.075Z,26.22
2018-07-02T00:44:01.014Z,26.22
2018-07-02T00:46:30.109Z,26.22
2018-07-02T00:48:59.202Z,26.23
2018-07-02T00:51:28.250Z,26.22
2018-07-02T00:53:57.257Z,26.22
2018-07-02T00:56:26.230Z,26.21
2018-07-02T00:58:55.456Z,26.23
2018-07-02T01:01:27.707Z,26.22
2018-07-02T01:03:58.485Z,26.22
2018-07-02T01:06:27.365Z,26.21
2018-07-02T01:08:56.388Z,26.22
2018-07-02T01:11:25.264Z,26.21
2018-07-02T01:13:54.461Z,26.21
2018-07-02T01:16:23.624Z,26.22
2018-07-02T01:18:52.410Z,26.22
2018-07-02T01:21:21.455Z,26.22
2018-07-02T01:23:50.444Z,26.20
2018-07-02T01:26:20.788Z,26.21
2018-07-02T01:28:49.901Z,26.20
2018-07-02T01:31:18.899Z,26.21
2018-07-02T01:33:47.984Z,26.20
2018-07-02T01:36:16.933Z,26.21
2018-07-02T01:38:45.999Z,26.20
2018-07-02T01:41:15.102Z,26.20
2018-07-02T01:43:43.854Z,26.20
2018-07-02T01:46:12.963Z,26.20
2018-07-02T01:48:41.955Z,26.22
2018-07-02T01:51:11.006Z,26.22
2018-07-02T01:53:39.882Z,26.22
2018-07-02T01:56:08.691Z,26.22
2018-07-02T01:58:37.762Z,26.21
2018-07-02T02:01:06.748Z,26.21
2018-07-02T02:03:35.738Z,26.22
2018-07-02T02:06:04.632Z,26.23
2018-07-02T02:08:33.684Z,26.22
2018-07-02T02:11:02.732Z,26.24
2018-07-02T02:13:31.832Z,26.23
2018-07-02T02:16:00.660Z,26.25
2018-07-02T02:18:29.596Z,26.25
2018-07-02T02:20:58.532Z,26.26
2018-07-02T02:23:27.425Z,26.25
2018-07-02T02:25:56.743Z,26.26
2018-07-02T02:28:25.682Z,26.27
2018-07-02T02:30:54.475Z,26.27
2018-07-02T02:33:23.559Z,26.27
2018-07-02T02:35:52.554Z,26.28
2018-07-02T02:38:21.534Z,26.30
2018-07-02T02:40:50.769Z,26.31
2018-07-02T02:43:19.752Z,26.32
2018-07-02T02:45:48.685Z,26.34
2018-07-02T02:48:17.783Z,26.38
2018-07-02T02:50:46.941Z,26.40
2018-07-02T02:53:16.061Z,26.41
2018-07-02T02:55:44.999Z,26.45
2018-07-02T02:58:14.121Z,26.47
2018-07-02T03:00:42.910Z,26.49
2018-07-02T03:03:12.007Z,26.50
2018-07-02T03:05:40.976Z,26.52
2018-07-02T03:08:10.006Z,26.53
2018-07-02T03:10:39.318Z,26.56
2018-07-02T03:13:08.100Z,26.57
2018-07-02T03:15:37.139Z,26.59
2018-07-02T03:18:06.113Z,26.61
2018-07-02T03:20:34.969Z,26.63
2018-07-02T03:23:04.025Z,26.65
2018-07-02T03:25:32.961Z,26.67
2018-07-02T03:28:01.952Z,26.69
2018-07-02T03:30:30.895Z,26.71
2018-07-02T03:32:59.834Z,26.72
2018-07-02T03:35:28.669Z,26.74
2018-07-02T03:37:57.927Z,26.77
2018-07-02T03:40:26.927Z,26.78
2018-07-02T03:42:55.867Z,26.81
2018-07-02T03:45:24.907Z,26.82
2018-07-02T03:47:53.643Z,26.85
2018-07-02T03:50:23.511Z,26.88
2018-07-02T03:52:52.451Z,26.89
2018-07-02T03:55:21.496Z,26.91
2018-07-02T03:57:50.349Z,26.93
2018-07-02T04:00:19.178Z,26.94
2018-07-02T04:02:47.953Z,26.97
2018-07-02T04:05:17.012Z,26.99
2018-07-02T04:07:46.177Z,27.01
2018-07-02T04:10:15.055Z,27.03
2018-07-02T04:12:44.045Z,27.04
2018-07-02T04:15:12.966Z,27.07
2018-07-02T04:17:41.926Z,27.09
2018-07-02T04:20:10.896Z,27.11
2018-07-02T04:22:39.866Z,27.13
2018-07-02T04:25:09.025Z,27.15
2018-07-02T04:27:37.905Z,27.16
2018-07-02T04:30:06.846Z,27.19
2018-07-02T04:32:35.783Z,27.20
2018-07-02T04:35:04.634Z,27.22
2018-07-02T04:37:33.576Z,27.25
2018-07-02T04:40:02.778Z,27.25
2018-07-02T04:42:31.823Z,27.27
2018-07-02T04:45:00.880Z,27.29
2018-07-02T04:47:29.921Z,27.31
2018-07-02T04:49:58.849Z,27.33
2018-07-02T04:52:27.893Z,27.34
2018-07-02T04:54:57.062Z,27.37
2018-07-02T04:57:26.255Z,27.38
2018-07-02T04:59:55.407Z,27.39
2018-07-02T05:02:24.386Z,27.42
2018-07-02T05:04:53.329Z,27.38
2018-07-02T05:07:22.907Z,27.45
2018-07-02T05:09:51.872Z,27.47
2018-07-02T05:12:20.878Z,27.48
2018-07-02T05:14:49.817Z,27.49
2018-07-02T05:17:18.821Z,27.52
2018-07-02T05:19:47.724Z,27.53
2018-07-02T05:22:16.733Z,27.55
2018-07-02T05:24:45.909Z,27.56
2018-07-02T05:27:15.146Z,27.58
2018-07-02T05:29:44.046Z,27.60
2018-07-02T05:32:12.906Z,27.62
2018-07-02T05:34:41.841Z,27.62
2018-07-02T05:37:10.829Z,27.60
2018-07-02T05:39:39.929Z,27.66
2018-07-02T05:42:08.802Z,27.69
2018-07-02T05:44:37.849Z,27.69
2018-07-02T05:47:06.758Z,27.71
2018-07-02T05:49:35.585Z,27.72
2018-07-02T05:52:04.785Z,27.74
2018-07-02T05:54:33.834Z,27.74
2018-07-02T05:57:02.846Z,27.76
2018-07-02T05:59:31.902Z,27.78
2018-07-02T06:02:00.933Z,27.80
2018-07-02T06:04:29.960Z,27.81
2018-07-02T06:06:58.935Z,27.81
2018-07-02T06:09:27.997Z,27.82
2018-07-02T06:11:56.942Z,27.85
2018-07-02T06:14:25.824Z,27.86
2018-07-02T06:16:54.881Z,27.88
2018-07-02T06:19:24.025Z,27.89
2018-07-02T06:21:52.983Z,27.90
2018-07-02T06:24:21.862Z,27.90
2018-07-02T06:26:50.917Z,27.89
2018-07-02T06:29:19.997Z,27.89
2018-07-02T06:31:48.945Z,27.88
2018-07-02T06:34:17.758Z,27.88
2018-07-02T06:36:46.678Z,27.90
2018-07-02T06:39:15.417Z,27.93
2018-07-02T06:41:44.150Z,27.94
2018-07-02T06:44:13.202Z,27.96
2018-07-02T06:46:42.049Z,27.96
2018-07-02T06:49:10.942Z,27.96
2018-07-02T06:51:40.021Z,27.97
2018-07-02T06:54:08.979Z,27.99
2018-07-02T06:56:38.180Z,27.99
2018-07-02T06:59:06.991Z,28.00
2018-07-02T07:01:35.965Z,28.00
2018-07-02T07:04:05.162Z,28.02
2018-07-02T07:06:34.170Z,28.05
2018-07-02T07:09:03.286Z,28.06
2018-07-02T07:11:32.604Z,28.07
2018-07-02T07:14:02.122Z,28.09
2018-07-02T07:16:31.165Z,28.10
2018-07-02T07:19:00.146Z,28.11
2018-07-02T07:21:29.200Z,28.12
2018-07-02T07:23:58.344Z,28.13
2018-07-02T07:26:27.284Z,28.15
2018-07-02T07:28:56.191Z,28.16
2018-07-02T07:31:25.129Z,28.16
2018-07-02T07:33:54.273Z,28.18
2018-07-02T07:36:23.316Z,28.18
2018-07-02T07:38:52.269Z,28.18
2018-07-02T07:41:21.305Z,28.19
2018-07-02T07:43:50.290Z,28.20
2018-07-02T07:46:19.455Z,28.20
2018-07-02T07:48:48.497Z,28.20
2018-07-02T07:51:17.432Z,28.20
2018-07-02T07:53:46.318Z,28.20
2018-07-02T07:56:15.430Z,28.20
2018-07-02T07:58:44.412Z,28.20
2018-07-02T08:01:13.457Z,28.19
2018-07-02T08:03:42.606Z,28.18
2018-07-02T08:06:11.711Z,28.18
2018-07-02T08:08:40.809Z,28.16
2018-07-02T08:11:09.787Z,28.16
2018-07-02T08:13:39.045Z,28.16
2018-07-02T08:16:08.245Z,28.14
2018-07-02T08:18:37.193Z,28.13
2018-07-02T08:21:06.158Z,28.12
2018-07-02T08:23:35.236Z,28.11
2018-07-02T08:26:04.287Z,28.10
2018-07-02T08:28:33.322Z,28.10
2018-07-02T08:31:02.565Z,28.09
2018-07-02T08:33:31.567Z,28.07
2018-07-02T08:36:00.718Z,28.06
2018-07-02T08:38:29.750Z,28.05
2018-07-02T08:40:58.989Z,28.05
2018-07-02T08:43:28.050Z,28.03
2018-07-02T08:45:57.064Z,28.02
2018-07-02T08:48:26.183Z,28.02
2018-07-02T08:50:55.253Z,28.00
2018-07-02T08:53:24.687Z,27.99
2018-07-02T08:55:53.787Z,27.98
2018-07-02T08:58:22.815Z,27.97
2018-07-02T09:00:51.798Z,27.97
2018-07-02T09:03:20.821Z,27.95
2018-07-02T09:05:49.773Z,27.95
2018-07-02T09:08:18.912Z,27.94
2018-07-02T09:10:47.820Z,27.93
2018-07-02T09:13:16.794Z,27.91
2018-07-02T09:15:45.990Z,27.91
2018-07-02T09:18:14.942Z,27.89
2018-07-02T09:20:44.112Z,27.88
2018-07-02T09:23:13.172Z,27.86
2018-07-02T09:25:42.179Z,27.86
2018-07-02T09:28:11.238Z,27.85
2018-07-02T09:30:40.690Z,27.83
2018-07-02T09:33:09.641Z,27.82
2018-07-02T09:35:38.544Z,27.82
2018-07-02T09:38:07.659Z,27.81
2018-07-02T09:40:36.755Z,27.80
2018-07-02T09:43:05.863Z,27.79
2018-07-02T09:45:34.857Z,27.79
2018-07-02T09:48:03.862Z,27.78
2018-07-02T09:50:33.044Z,27.77
2018-07-02T09:53:02.042Z,27.76
2018-07-02T09:55:31.098Z,27.70
2018-07-02T09:58:00.470Z,27.74
2018-07-02T10:00:29.571Z,27.73
2018-07-02T10:02:58.308Z,27.71
2018-07-02T10:05:27.512Z,27.70
2018-07-02T10:07:56.615Z,27.70
2018-07-02T10:10:25.654Z,27.69
2018-07-02T10:12:54.466Z,27.68
2018-07-02T10:15:23.621Z,27.67
2018-07-02T10:17:52.508Z,27.65
2018-07-02T10:20:21.640Z,27.65
2018-07-02T10:22:50.480Z,27.63
2018-07-02T10:25:19.454Z,27.61
2018-07-02T10:27:48.470Z,27.60
2018-07-02T10:30:17.520Z,27.58
2018-07-02T10:32:46.545Z,27.58
2018-07-02T10:35:15.494Z,27.56
2018-07-02T10:37:44.592Z,27.55
2018-07-02T10:40:13.589Z,27.54
2018-07-02T10:42:42.680Z,27.52
2018-07-02T10:45:11.538Z,27.51
2018-07-02T10:47:40.569Z,27.51
2018-07-02T10:50:09.762Z,27.49
2018-07-02T10:52:38.722Z,27.47
2018-07-02T10:55:07.754Z,27.47
2018-07-02T10:57:36.803Z,27.45
2018-07-02T11:00:06.094Z,27.45
2018-07-02T11:02:35.150Z,27.43
2018-07-02T11:05:04.400Z,27.42
2018-07-02T11:07:33.459Z,27.41
2018-07-02T11:10:02.520Z,27.40
2018-07-02T11:12:31.729Z,27.38
2018-07-02T11:15:01.046Z,27.36
2018-07-02T11:17:30.148Z,27.36
2018-07-02T11:19:59.231Z,27.35
2018-07-02T11:22:28.239Z,27.33
2018-07-02T11:24:57.260Z,27.33
2018-07-02T11:27:26.247Z,27.31
2018-07-02T11:29:55.365Z,27.30
2018-07-02T11:32:24.203Z,27.29
2018-07-02T11:34:53.120Z,27.29
2018-07-02T11:37:22.212Z,27.27
2018-07-02T11:39:51.313Z,27.27
2018-07-02T11:42:20.444Z,27.26
2018-07-02T11:44:49.436Z,27.25
2018-07-02T11:47:18.357Z,27.25
2018-07-02T11:49:47.393Z,27.26
2018-07-02T11:52:16.507Z,27.24
2018-07-02T11:54:45.278Z,27.25
2018-07-02T11:57:14.244Z,27.24
2018-07-02T11:59:43.162Z,27.25
2018-07-02T12:02:12.260Z,27.25
2018-07-02T12:04:41.231Z,27.26
2018-07-02T12:07:10.228Z,27.25
2018-07-02T12:09:39.245Z,27.25
2018-07-02T12:14:42.654Z,27.25
2018-07-02T12:17:11.701Z,27.25
2018-07-02T12:22:15.005Z,27.25
2018-07-02T12:24:43.942Z,27.25
2018-07-02T12:27:13.087Z,27.25
2018-07-02T12:29:42.084Z,27.24
2018-07-02T12:32:11.026Z,27.24
2018-07-02T12:34:40.071Z,27.24
2018-07-02T12:37:08.937Z,27.23
2018-07-02T12:39:37.966Z,27.25
2018-07-02T12:42:06.938Z,27.23
2018-07-02T12:44:35.945Z,27.23
2018-07-02T12:47:05.198Z,27.23
2018-07-02T12:49:34.271Z,27.22
2018-07-02T12:52:03.381Z,27.20
2018-07-02T12:54:32.668Z,27.20
2018-07-02T12:57:01.785Z,27.20
2018-07-02T12:59:31.031Z,27.18
2018-07-02T13:02:00.291Z,27.17
2018-07-02T13:04:29.391Z,27.17
2018-07-02T13:06:58.220Z,27.16
2018-07-02T13:09:27.322Z,27.16
2018-07-02T13:11:56.266Z,27.15
2018-07-02T13:14:25.472Z,27.15
2018-07-02T13:16:54.448Z,27.13
2018-07-02T13:19:23.397Z,27.13
2018-07-02T13:21:52.344Z,27.12
2018-07-02T13:24:21.590Z,27.12
2018-07-02T13:26:50.574Z,27.11
2018-07-02T13:29:19.423Z,27.11
2018-07-02T13:31:48.571Z,27.11
2018-07-02T13:34:17.602Z,27.10
2018-07-02T13:36:46.727Z,27.09
2018-07-02T13:39:15.767Z,27.09
2018-07-02T13:41:44.846Z,27.08
2018-07-02T13:44:13.969Z,27.07
2018-07-02T13:46:43.051Z,27.06
2018-07-02T13:49:12.034Z,27.05
2018-07-02T13:51:41.162Z,27.05
2018-07-02T13:54:10.133Z,27.05
2018-07-02T13:56:39.286Z,27.04
2018-07-02T13:59:08.621Z,27.03
2018-07-02T14:01:37.692Z,27.03
2018-07-02T14:04:06.957Z,27.02
2018-07-02T14:06:36.214Z,27.02
2018-07-02T14:09:08.527Z,27.00
2018-07-02T14:11:37.982Z,27.01
2018-07-02T14:14:07.003Z,27.00
2018-07-02T14:16:36.306Z,27.00
2018-07-02T14:19:05.770Z,27.00
2018-07-02T14:21:34.928Z,26.99
2018-07-02T14:24:04.334Z,26.99
2018-07-02T14:26:33.492Z,26.98
2018-07-02T14:29:02.760Z,26.98
2018-07-02T14:31:31.853Z,26.98
2018-07-02T14:34:01.054Z,26.98
2018-07-02T14:36:30.181Z,26.98
2018-07-02T14:38:59.334Z,26.98
2018-07-02T14:41:28.464Z,26.96
2018-07-02T14:43:57.543Z,26.96
2018-07-02T14:46:26.394Z,26.96
2018-07-02T14:48:55.445Z,26.96
2018-07-02T14:51:24.471Z,26.95
2018-07-02T14:53:53.546Z,26.96
2018-07-02T14:56:22.619Z,26.95
2018-07-02T14:58:52.389Z,26.94
2018-07-02T15:01:21.320Z,26.96
2018-07-02T15:03:50.226Z,26.94
2018-07-02T15:06:19.260Z,26.94
2018-07-02T15:08:48.115Z,26.93
2018-07-02T15:11:17.088Z,26.93
2018-07-02T15:13:46.153Z,26.94
2018-07-02T15:16:15.337Z,26.93
2018-07-02T15:18:44.446Z,26.92
2018-07-02T15:21:13.622Z,26.92
2018-07-02T15:23:42.705Z,26.92
2018-07-02T15:26:11.887Z,26.91
2018-07-02T15:28:41.126Z,26.90
2018-07-02T15:31:10.048Z,26.91
2018-07-02T15:33:39.241Z,26.90
2018-07-02T15:36:08.330Z,26.90
2018-07-02T15:38:37.512Z,26.90
2018-07-02T15:41:06.556Z,26.89
2018-07-02T15:43:35.700Z,26.89
2018-07-02T15:46:04.849Z,26.88
2018-07-02T15:48:34.075Z,26.88
2018-07-02T15:51:03.223Z,26.87
2018-07-02T15:53:32.250Z,26.86
2018-07-02T15:56:01.343Z,26.86
2018-07-02T15:58:30.359Z,26.86
2018-07-02T16:00:59.282Z,26.85
2018-07-02T16:03:28.369Z,26.84
2018-07-02T16:05:57.327Z,26.84
2018-07-02T16:08:26.438Z,26.82
2018-07-02T16:10:55.421Z,26.84
2018-07-02T16:13:24.462Z,26.83
2018-07-02T16:15:53.399Z,26.83
2018-07-02T16:18:22.610Z,26.82
2018-07-02T16:20:51.689Z,26.83
2018-07-02T16:23:20.808Z,26.82
2018-07-02T16:25:50.053Z,26.82
2018-07-02T16:28:19.453Z,26.82
2018-07-02T16:30:48.594Z,26.81
2018-07-02T16:33:17.694Z,26.81
2018-07-02T16:35:46.648Z,26.81
2018-07-02T16:38:15.554Z,26.81
2018-07-02T16:40:44.478Z,26.81
2018-07-02T16:43:13.731Z,26.81
2018-07-02T16:45:43.632Z,26.81
2018-07-02T16:48:12.657Z,26.80
2018-07-02T16:50:41.639Z,26.80
2018-07-02T16:53:10.745Z,26.79
2018-07-02T16:55:39.767Z,26.79
2018-07-02T16:58:08.862Z,26.79
2018-07-02T17:00:37.906Z,26.79
2018-07-02T17:03:08.911Z,26.78
2018-07-02T17:05:38.399Z,26.78
2018-07-02T17:08:07.639Z,26.78
2018-07-02T17:10:36.749Z,26.77
2018-07-02T17:13:05.904Z,26.76
2018-07-02T17:15:35.826Z,26.76
2018-07-02T17:18:04.757Z,26.76
2018-07-02T17:20:33.953Z,26.76
2018-07-02T17:23:02.992Z,26.76
2018-07-02T17:25:31.984Z,26.75
2018-07-02T17:28:01.047Z,26.74
2018-07-02T17:30:30.254Z,26.74
2018-07-02T17:32:59.453Z,26.73
2018-07-02T17:35:28.587Z,26.73
2018-07-02T17:37:57.615Z,26.73
2018-07-02T17:40:26.720Z,26.72
2018-07-02T17:42:55.908Z,26.72
2018-07-02T17:45:25.771Z,26.72
2018-07-02T17:47:54.971Z,26.71
2018-07-02T17:50:24.179Z,26.70
2018-07-02T17:52:53.387Z,26.70
2018-07-02T17:55:22.520Z,26.69
2018-07-02T17:57:52.209Z,26.69
2018-07-02T18:00:21.251Z,26.69
2018-07-02T18:02:50.863Z,26.69
2018-07-02T18:05:20.134Z,26.68
2018-07-02T18:07:49.346Z,26.67
2018-07-02T18:10:18.346Z,26.67
2018-07-02T18:12:47.495Z,26.66
2018-07-02T18:15:16.612Z,26.67
2018-07-02T18:17:45.528Z,26.66
2018-07-02T18:20:14.831Z,26.66
2018-07-02T18:22:44.196Z,26.65
2018-07-02T18:25:13.346Z,26.64
2018-07-02T18:27:43.049Z,26.64
2018-07-02T18:30:12.157Z,26.63
2018-07-02T18:32:41.487Z,26.63
2018-07-02T18:35:10.545Z,26.62
2018-07-02T18:37:39.533Z,26.63
2018-07-02T18:40:09.194Z,26.61
2018-07-02T18:42:38.507Z,26.62
2018-07-02T18:45:08.220Z,26.60
2018-07-02T18:47:37.187Z,26.62
2018-07-02T18:50:06.588Z,26.62
2018-07-02T18:52:35.777Z,26.62
2018-07-02T18:55:04.996Z,26.62
2018-07-02T18:57:33.969Z,26.62
2018-07-02T19:00:03.150Z,26.62
2018-07-02T19:02:32.258Z,26.62
2018-07-02T19:05:01.399Z,26.61
2018-07-02T19:07:30.629Z,26.61
2018-07-02T19:09:59.729Z,26.62
2018-07-02T19:12:28.891Z,26.61
2018-07-02T19:14:58.144Z,26.61
2018-07-02T19:17:27.421Z,26.61
2018-07-02T19:19:56.658Z,26.61
2018-07-02T19:22:26.140Z,26.62
2018-07-02T19:24:55.597Z,26.62
2018-07-02T19:27:25.242Z,26.60
2018-07-02T19:29:54.933Z,26.61
2018-07-02T19:32:24.766Z,26.32
2018-07-02T19:34:54.134Z,26.61
2018-07-02T19:37:23.781Z,26.61
2018-07-02T19:39:53.424Z,26.61
2018-07-02T19:42:23.054Z,26.59
2018-07-02T19:44:52.223Z,26.61
2018-07-02T19:47:21.350Z,26.60
2018-07-02T19:49:50.488Z,26.59
2018-07-02T19:52:19.856Z,26.58
2018-07-02T19:54:49.421Z,26.59
2018-07-02T19:57:18.961Z,26.58
2018-07-02T19:59:48.319Z,26.58
2018-07-02T20:02:17.717Z,26.58
2018-07-02T20:04:46.835Z,26.57
2018-07-02T20:07:16.013Z,26.57
2018-07-02T20:09:44.883Z,26.56
2018-07-02T20:12:13.995Z,26.55
2018-07-02T20:14:43.328Z,26.55
2018-07-02T20:17:12.360Z,26.54
2018-07-02T20:19:42.441Z,26.52
2018-07-02T20:22:11.513Z,26.52
2018-07-02T20:24:41.089Z,26.52
2018-07-02T20:27:10.326Z,26.52
2018-07-02T20:29:39.493Z,26.52
2018-07-02T20:32:08.512Z,26.51
2018-07-02T20:34:37.634Z,26.50
2018-07-02T20:37:06.623Z,26.50
2018-07-02T20:39:36.198Z,26.49
2018-07-02T20:42:05.564Z,26.48
2018-07-02T20:44:34.490Z,26.48
2018-07-02T20:47:04.034Z,26.48
2018-07-02T20:49:33.182Z,26.47
2018-07-02T20:52:02.322Z,26.47
2018-07-02T20:54:31.463Z,26.47
2018-07-02T20:57:00.788Z,26.47
2018-07-02T20:59:29.943Z,26.47
2018-07-02T21:01:59.110Z,26.47
2018-07-02T21:04:28.275Z,26.47
2018-07-02T21:06:57.420Z,26.46
2018-07-02T21:09:26.564Z,26.46
2018-07-02T21:11:55.595Z,26.46
2018-07-02T21:14:24.452Z,26.46
2018-07-02T21:16:53.275Z,26.45
2018-07-02T21:19:22.354Z,26.47
2018-07-02T21:21:51.276Z,26.46
2018-07-02T21:24:20.067Z,26.46
2018-07-02T21:26:49.059Z,26.47
2018-07-02T21:29:17.995Z,26.47
2018-07-02T21:31:47.180Z,26.45
2018-07-02T21:34:16.037Z,26.46
2018-07-02T21:36:44.894Z,26.46
2018-07-02T21:39:14.512Z,26.46
2018-07-02T21:41:43.721Z,26.45
2018-07-02T21:44:12.576Z,26.45
2018-07-02T21:46:41.419Z,26.45
2018-07-02T21:49:10.217Z,26.44
2018-07-02T21:51:39.002Z,26.44
2018-07-02T21:54:07.816Z,26.44
2018-07-02T21:56:36.668Z,26.45
2018-07-02T21:59:05.695Z,26.44
2018-07-02T22:01:34.955Z,26.43
2018-07-02T22:04:04.063Z,26.43
2018-07-02T22:06:33.111Z,26.43
2018-07-02T22:09:02.024Z,26.43
2018-07-02T22:11:30.926Z,26.43
2018-07-02T22:13:59.743Z,26.42
2018-07-02T22:16:28.607Z,26.42
2018-07-02T22:18:57.727Z,26.42
2018-07-02T22:21:26.656Z,26.41
2018-07-02T22:23:55.920Z,26.41
2018-07-02T22:26:24.809Z,26.40
2018-07-02T22:28:53.681Z,26.40
2018-07-02T22:31:24.404Z,26.38
2018-07-02T22:33:53.428Z,26.38
2018-07-02T22:36:22.261Z,26.38
2018-07-02T22:38:51.100Z,26.38
2018-07-02T22:41:20.057Z,26.38
2018-07-02T22:43:48.893Z,26.36
2018-07-02T22:46:17.842Z,26.36
2018-07-02T22:48:46.683Z,26.35
2018-07-02T22:51:15.627Z,26.35
2018-07-02T22:53:44.438Z,26.35
2018-07-02T22:56:13.250Z,26.33
2018-07-02T22:58:42.212Z,26.33
2018-07-02T23:01:10.974Z,26.32
2018-07-02T23:03:39.887Z,26.32
2018-07-02T23:06:08.790Z,26.32
2018-07-02T23:08:37.887Z,26.31
2018-07-02T23:11:07.115Z,26.30
2018-07-02T23:13:36.105Z,26.30
2018-07-02T23:16:05.654Z,26.30
2018-07-02T23:18:35.381Z,26.29
2018-07-02T23:21:04.619Z,26.30
2018-07-02T23:23:34.229Z,26.30
2018-07-02T23:26:03.645Z,26.28
2018-07-02T23:28:32.585Z,26.30
2018-07-02T23:31:01.536Z,26.29
2018-07-02T23:33:30.903Z,26.29
2018-07-02T23:36:00.083Z,26.29
2018-07-02T23:38:29.339Z,26.29
2018-07-02T23:40:58.743Z,26.29
2018-07-02T23:43:27.806Z,26.29
2018-07-02T23:45:56.977Z,26.28
2018-07-02T23:48:26.166Z,26.28
2018-07-02T23:50:55.374Z,26.29
2018-07-02T23:53:24.473Z,26.28
2018-07-02T23:55:53.523Z,26.28
2018-07-02T23:58:22.815Z,26.28
